sensor_id;sensor_type;location;lat;lon;timestamp;temperature;humidity
68257;DHT22;55069;51.568;4.656;2023-05-10T00:00:12;12.20;94.84
68257;DHT22;55069;51.568;4.656;2023-05-10T00:02:41;12.29;95.13
68257;DHT22;55069;51.568;4.656;2023-05-10T00:05:08;12.36;95.15
68257;DHT22;55069;51.568;4.656;2023-05-10T00:07:34;12.40;95.05
68257;DHT22;55069;51.568;4.656;2023-05-10T00:10:00;12.50;95.05
68257;DHT22;55069;51.568;4.656;2023-05-10T00:12:25;12.50;95.01
68257;DHT22;55069;51.568;4.656;2023-05-10T00:14:51;12.51;94.95
68257;DHT22;55069;51.568;4.656;2023-05-10T00:17:16;12.50;94.88
68257;DHT22;55069;51.568;4.656;2023-05-10T00:19:42;12.51;94.81
68257;DHT22;55069;51.568;4.656;2023-05-10T00:22:07;12.50;94.72
68257;DHT22;55069;51.568;4.656;2023-05-10T00:24:33;12.51;94.88
68257;DHT22;55069;51.568;4.656;2023-05-10T00:26:59;12.58;94.82
68257;DHT22;55069;51.568;4.656;2023-05-10T00:29:25;12.64;94.97
68257;DHT22;55069;51.568;4.656;2023-05-10T00:31:53;12.64;94.96
68257;DHT22;55069;51.568;4.656;2023-05-10T00:34:18;12.64;94.78
68257;DHT22;55069;51.568;4.656;2023-05-10T00:36:44;12.67;95.03
68257;DHT22;55069;51.568;4.656;2023-05-10T00:39:10;12.71;94.94
68257;DHT22;55069;51.568;4.656;2023-05-10T00:41:35;12.71;95.09
68257;DHT22;55069;51.568;4.656;2023-05-10T00:44:03;12.72;94.97
68257;DHT22;55069;51.568;4.656;2023-05-10T00:46:29;12.82;95.08
68257;DHT22;55069;51.568;4.656;2023-05-10T00:48:55;12.82;95.01
68257;DHT22;55069;51.568;4.656;2023-05-10T00:51:21;12.87;95.09
68257;DHT22;55069;51.568;4.656;2023-05-10T00:53:48;12.89;94.95
68257;DHT22;55069;51.568;4.656;2023-05-10T00:56:15;12.92;95.03
68257;DHT22;55069;51.568;4.656;2023-05-10T00:58:41;12.93;94.88
68257;DHT22;55069;51.568;4.656;2023-05-10T01:01:08;12.95;94.86
68257;DHT22;55069;51.568;4.656;2023-05-10T01:03:34;12.98;94.86
68257;DHT22;55069;51.568;4.656;2023-05-10T01:06:01;13.05;95.01
68257;DHT22;55069;51.568;4.656;2023-05-10T01:08:27;13.09;95.02
68257;DHT22;55069;51.568;4.656;2023-05-10T01:10:55;13.06;94.78
68257;DHT22;55069;51.568;4.656;2023-05-10T01:13:36;13.06;94.86
68257;DHT22;55069;51.568;4.656;2023-05-10T01:16:02;13.09;94.93
68257;DHT22;55069;51.568;4.656;2023-05-10T01:18:33;13.09;94.79
68257;DHT22;55069;51.568;4.656;2023-05-10T01:26:39;13.16;94.86
68257;DHT22;55069;51.568;4.656;2023-05-10T01:29:14;13.12;94.67
68257;DHT22;55069;51.568;4.656;2023-05-10T01:35:06;12.98;94.67
68257;DHT22;55069;51.568;4.656;2023-05-10T01:37:56;12.99;94.57
68257;DHT22;55069;51.568;4.656;2023-05-10T01:43:38;13.08;94.27
68257;DHT22;55069;51.568;4.656;2023-05-10T01:46:09;13.05;94.24
68257;DHT22;55069;51.568;4.656;2023-05-10T01:48:43;12.98;94.11
68257;DHT22;55069;51.568;4.656;2023-05-10T01:51:16;12.98;94.18
68257;DHT22;55069;51.568;4.656;2023-05-10T01:53:46;13.05;94.34
68257;DHT22;55069;51.568;4.656;2023-05-10T01:56:16;13.03;94.08
68257;DHT22;55069;51.568;4.656;2023-05-10T01:58:44;13.02;93.95
68257;DHT22;55069;51.568;4.656;2023-05-10T02:01:13;12.98;93.47
68257;DHT22;55069;51.568;4.656;2023-05-10T02:03:41;13.02;93.31
68257;DHT22;55069;51.568;4.656;2023-05-10T02:06:09;12.99;93.54
68257;DHT22;55069;51.568;4.656;2023-05-10T02:08:36;12.91;93.32
68257;DHT22;55069;51.568;4.656;2023-05-10T02:11:03;12.92;93.37
68257;DHT22;55069;51.568;4.656;2023-05-10T02:13:31;12.91;93.42
68257;DHT22;55069;51.568;4.656;2023-05-10T02:15:59;12.89;93.35
68257;DHT22;55069;51.568;4.656;2023-05-10T02:18:25;12.85;93.48
68257;DHT22;55069;51.568;4.656;2023-05-10T02:20:53;12.87;93.55
68257;DHT22;55069;51.568;4.656;2023-05-10T02:23:20;12.85;93.65
68257;DHT22;55069;51.568;4.656;2023-05-10T02:25:48;12.79;93.63
68257;DHT22;55069;51.568;4.656;2023-05-10T02:28:15;12.82;93.63
68257;DHT22;55069;51.568;4.656;2023-05-10T02:30:42;12.87;93.74
68257;DHT22;55069;51.568;4.656;2023-05-10T02:33:10;12.89;93.70
68257;DHT22;55069;51.568;4.656;2023-05-10T02:35:38;12.79;93.27
68257;DHT22;55069;51.568;4.656;2023-05-10T02:38:04;12.75;93.39
68257;DHT22;55069;51.568;4.656;2023-05-10T02:40:32;12.78;93.37
68257;DHT22;55069;51.568;4.656;2023-05-10T02:42:59;12.77;93.30
68257;DHT22;55069;51.568;4.656;2023-05-10T02:45:29;12.74;93.28
68257;DHT22;55069;51.568;4.656;2023-05-10T02:47:56;12.74;93.20
68257;DHT22;55069;51.568;4.656;2023-05-10T02:50:22;12.78;93.42
68257;DHT22;55069;51.568;4.656;2023-05-10T02:52:51;12.74;93.38
68257;DHT22;55069;51.568;4.656;2023-05-10T02:55:22;12.78;93.26
68257;DHT22;55069;51.568;4.656;2023-05-10T02:57:57;12.68;92.85
68257;DHT22;55069;51.568;4.656;2023-05-10T03:00:24;12.60;92.77
68257;DHT22;55069;51.568;4.656;2023-05-10T03:02:50;12.68;92.83
68257;DHT22;55069;51.568;4.656;2023-05-10T03:05:16;12.61;92.85
68257;DHT22;55069;51.568;4.656;2023-05-10T03:07:42;12.61;92.82
68257;DHT22;55069;51.568;4.656;2023-05-10T03:10:09;12.64;92.98
68257;DHT22;55069;51.568;4.656;2023-05-10T03:12:44;12.60;92.77
68257;DHT22;55069;51.568;4.656;2023-05-10T03:15:50;12.58;92.82
68257;DHT22;55069;51.568;4.656;2023-05-10T03:18:29;12.55;92.86
68257;DHT22;55069;51.568;4.656;2023-05-10T03:21:04;12.57;92.91
68257;DHT22;55069;51.568;4.656;2023-05-10T03:23:35;12.53;92.77
68257;DHT22;55069;51.568;4.656;2023-05-10T03:26:05;12.57;93.00
68257;DHT22;55069;51.568;4.656;2023-05-10T03:28:34;12.48;92.72
68257;DHT22;55069;51.568;4.656;2023-05-10T03:31:02;12.44;92.78
68257;DHT22;55069;51.568;4.656;2023-05-10T03:33:30;12.50;92.93
68257;DHT22;55069;51.568;4.656;2023-05-10T03:35:57;12.48;92.92
68257;DHT22;55069;51.568;4.656;2023-05-10T03:38:23;12.47;93.08
68257;DHT22;55069;51.568;4.656;2023-05-10T03:40:48;12.45;93.14
68257;DHT22;55069;51.568;4.656;2023-05-10T03:43:14;12.38;92.95
68257;DHT22;55069;51.568;4.656;2023-05-10T03:45:41;12.38;92.96
68257;DHT22;55069;51.568;4.656;2023-05-10T03:48:06;12.37;92.91
68257;DHT22;55069;51.568;4.656;2023-05-10T03:50:32;12.34;92.91
68257;DHT22;55069;51.568;4.656;2023-05-10T03:52:57;12.30;92.83
68257;DHT22;55069;51.568;4.656;2023-05-10T03:55:23;12.32;92.95
68257;DHT22;55069;51.568;4.656;2023-05-10T03:57:49;12.29;93.02
68257;DHT22;55069;51.568;4.656;2023-05-10T04:00:16;12.27;92.98
68257;DHT22;55069;51.568;4.656;2023-05-10T04:02:41;12.22;93.15
68257;DHT22;55069;51.568;4.656;2023-05-10T04:05:11;12.22;93.26
68257;DHT22;55069;51.568;4.656;2023-05-10T04:07:37;12.23;93.45
68257;DHT22;55069;51.568;4.656;2023-05-10T04:10:03;12.19;93.48
68257;DHT22;55069;51.568;4.656;2023-05-10T04:12:28;12.23;93.53
68257;DHT22;55069;51.568;4.656;2023-05-10T04:14:54;12.20;93.54
68257;DHT22;55069;51.568;4.656;2023-05-10T04:17:20;12.16;93.59
68257;DHT22;55069;51.568;4.656;2023-05-10T04:19:46;12.19;93.74
68257;DHT22;55069;51.568;4.656;2023-05-10T04:22:12;12.22;93.89
68257;DHT22;55069;51.568;4.656;2023-05-10T04:24:38;12.26;93.58
68257;DHT22;55069;51.568;4.656;2023-05-10T04:27:03;12.27;93.72
68257;DHT22;55069;51.568;4.656;2023-05-10T04:29:29;12.30;93.72
68257;DHT22;55069;51.568;4.656;2023-05-10T04:31:55;12.32;93.68
68257;DHT22;55069;51.568;4.656;2023-05-10T04:34:22;12.30;93.55
68257;DHT22;55069;51.568;4.656;2023-05-10T04:36:47;12.32;93.49
68257;DHT22;55069;51.568;4.656;2023-05-10T04:39:13;12.33;93.61
68257;DHT22;55069;51.568;4.656;2023-05-10T04:41:39;12.38;93.69
68257;DHT22;55069;51.568;4.656;2023-05-10T04:44:05;12.32;93.68
68257;DHT22;55069;51.568;4.656;2023-05-10T04:46:30;12.29;93.86
68257;DHT22;55069;51.568;4.656;2023-05-10T04:48:56;12.27;93.82
68257;DHT22;55069;51.568;4.656;2023-05-10T04:51:22;12.36;93.78
68257;DHT22;55069;51.568;4.656;2023-05-10T04:53:47;12.34;93.53
68257;DHT22;55069;51.568;4.656;2023-05-10T04:56:13;12.34;93.07
68257;DHT22;55069;51.568;4.656;2023-05-10T04:58:38;12.32;92.95
68257;DHT22;55069;51.568;4.656;2023-05-10T05:01:05;12.36;92.94
68257;DHT22;55069;51.568;4.656;2023-05-10T05:03:32;12.43;93.05
68257;DHT22;55069;51.568;4.656;2023-05-10T05:05:58;12.43;92.89
68257;DHT22;55069;51.568;4.656;2023-05-10T05:08:23;12.41;92.76
68257;DHT22;55069;51.568;4.656;2023-05-10T05:10:49;12.38;92.62
68257;DHT22;55069;51.568;4.656;2023-05-10T05:13:15;12.33;92.99
68257;DHT22;55069;51.568;4.656;2023-05-10T05:15:41;12.38;93.08
68257;DHT22;55069;51.568;4.656;2023-05-10T05:18:06;12.37;93.19
68257;DHT22;55069;51.568;4.656;2023-05-10T05:20:32;12.34;93.15
68257;DHT22;55069;51.568;4.656;2023-05-10T05:22:59;12.33;92.94
68257;DHT22;55069;51.568;4.656;2023-05-10T05:25:25;12.24;92.77
68257;DHT22;55069;51.568;4.656;2023-05-10T05:27:50;12.24;92.89
68257;DHT22;55069;51.568;4.656;2023-05-10T05:30:16;12.23;92.67
68257;DHT22;55069;51.568;4.656;2023-05-10T05:32:42;12.24;92.30
68257;DHT22;55069;51.568;4.656;2023-05-10T05:35:08;12.32;92.17
68257;DHT22;55069;51.568;4.656;2023-05-10T05:37:33;12.38;91.94
68257;DHT22;55069;51.568;4.656;2023-05-10T05:39:59;12.41;91.50
68257;DHT22;55069;51.568;4.656;2023-05-10T05:42:26;12.44;91.54
68257;DHT22;55069;51.568;4.656;2023-05-10T05:44:52;12.47;91.02
68257;DHT22;55069;51.568;4.656;2023-05-10T05:47:18;12.41;90.80
68257;DHT22;55069;51.568;4.656;2023-05-10T05:49:43;12.41;91.12
68257;DHT22;55069;51.568;4.656;2023-05-10T05:52:11;12.40;91.26
68257;DHT22;55069;51.568;4.656;2023-05-10T05:54:37;12.48;91.25
68257;DHT22;55069;51.568;4.656;2023-05-10T05:57:02;12.51;90.77
68257;DHT22;55069;51.568;4.656;2023-05-10T05:59:28;12.57;90.93
68257;DHT22;55069;51.568;4.656;2023-05-10T06:01:54;12.58;90.99
68257;DHT22;55069;51.568;4.656;2023-05-10T06:04:20;12.64;90.72
68257;DHT22;55069;51.568;4.656;2023-05-10T06:06:46;12.62;90.33
68257;DHT22;55069;51.568;4.656;2023-05-10T06:09:11;12.67;90.51
68257;DHT22;55069;51.568;4.656;2023-05-10T06:11:37;12.62;90.71
68257;DHT22;55069;51.568;4.656;2023-05-10T06:14:04;12.65;90.74
68257;DHT22;55069;51.568;4.656;2023-05-10T06:16:30;12.69;90.81
68257;DHT22;55069;51.568;4.656;2023-05-10T06:18:56;12.78;90.80
68257;DHT22;55069;51.568;4.656;2023-05-10T06:21:22;12.85;90.72
68257;DHT22;55069;51.568;4.656;2023-05-10T06:23:48;12.78;90.18
68257;DHT22;55069;51.568;4.656;2023-05-10T06:26:13;12.72;90.05
68257;DHT22;55069;51.568;4.656;2023-05-10T06:28:39;12.69;90.26
68257;DHT22;55069;51.568;4.656;2023-05-10T06:31:06;12.71;90.18
68257;DHT22;55069;51.568;4.656;2023-05-10T06:33:32;12.69;90.14
68257;DHT22;55069;51.568;4.656;2023-05-10T06:35:58;12.65;90.15
68257;DHT22;55069;51.568;4.656;2023-05-10T06:38:24;12.67;89.78
68257;DHT22;55069;51.568;4.656;2023-05-10T06:40:49;12.71;89.73
68257;DHT22;55069;51.568;4.656;2023-05-10T06:43:15;12.75;89.97
68257;DHT22;55069;51.568;4.656;2023-05-10T06:45:41;12.78;89.52
68257;DHT22;55069;51.568;4.656;2023-05-10T06:48:07;12.87;89.49
68257;DHT22;55069;51.568;4.656;2023-05-10T06:50:33;12.93;89.44
68257;DHT22;55069;51.568;4.656;2023-05-10T06:52:59;12.91;89.20
68257;DHT22;55069;51.568;4.656;2023-05-10T06:55:26;13.05;89.28
68257;DHT22;55069;51.568;4.656;2023-05-10T06:57:52;13.16;89.04
68257;DHT22;55069;51.568;4.656;2023-05-10T07:00:18;13.23;87.92
68257;DHT22;55069;51.568;4.656;2023-05-10T07:02:44;13.43;87.00
68257;DHT22;55069;51.568;4.656;2023-05-10T07:05:10;13.58;86.95
68257;DHT22;55069;51.568;4.656;2023-05-10T07:07:37;13.75;87.43
68257;DHT22;55069;51.568;4.656;2023-05-10T07:10:02;13.92;86.90
68257;DHT22;55069;51.568;4.656;2023-05-10T07:12:28;13.95;87.24
68257;DHT22;55069;51.568;4.656;2023-05-10T07:14:54;13.98;86.57
68257;DHT22;55069;51.568;4.656;2023-05-10T07:17:20;14.04;85.74
68257;DHT22;55069;51.568;4.656;2023-05-10T07:19:45;14.19;86.25
68257;DHT22;55069;51.568;4.656;2023-05-10T07:22:11;14.25;84.76
68257;DHT22;55069;51.568;4.656;2023-05-10T07:24:36;14.37;85.45
68257;DHT22;55069;51.568;4.656;2023-05-10T07:27:02;14.59;84.85
68257;DHT22;55069;51.568;4.656;2023-05-10T07:29:28;14.71;84.18
68257;DHT22;55069;51.568;4.656;2023-05-10T07:31:54;14.76;84.35
68257;DHT22;55069;51.568;4.656;2023-05-10T07:34:19;14.73;84.37
68257;DHT22;55069;51.568;4.656;2023-05-10T07:36:45;14.77;83.03
68257;DHT22;55069;51.568;4.656;2023-05-10T07:39:11;15.25;83.13
68257;DHT22;55069;51.568;4.656;2023-05-10T07:41:37;15.29;82.64
68257;DHT22;55069;51.568;4.656;2023-05-10T07:44:04;15.60;81.94
68257;DHT22;55069;51.568;4.656;2023-05-10T07:46:30;15.52;81.31
68257;DHT22;55069;51.568;4.656;2023-05-10T07:48:56;15.63;81.56
68257;DHT22;55069;51.568;4.656;2023-05-10T07:51:21;15.21;81.21
68257;DHT22;55069;51.568;4.656;2023-05-10T07:53:47;14.88;81.91
68257;DHT22;55069;51.568;4.656;2023-05-10T07:56:24;14.90;81.41
68257;DHT22;55069;51.568;4.656;2023-05-10T07:59:04;15.09;81.38
68257;DHT22;55069;51.568;4.656;2023-05-10T08:01:32;15.18;82.09
68257;DHT22;55069;51.568;4.656;2023-05-10T08:03:59;15.05;82.31
68257;DHT22;55069;51.568;4.656;2023-05-10T08:06:25;15.29;81.67
68257;DHT22;55069;51.568;4.656;2023-05-10T08:08:55;15.29;80.89
68257;DHT22;55069;51.568;4.656;2023-05-10T08:11:21;15.49;81.05
68257;DHT22;55069;51.568;4.656;2023-05-10T08:13:48;15.17;79.70
68257;DHT22;55069;51.568;4.656;2023-05-10T08:16:15;15.25;80.84
68257;DHT22;55069;51.568;4.656;2023-05-10T08:18:43;15.21;80.41
68257;DHT22;55069;51.568;4.656;2023-05-10T08:21:09;15.12;80.24
68257;DHT22;55069;51.568;4.656;2023-05-10T08:23:37;15.42;81.48
68257;DHT22;55069;51.568;4.656;2023-05-10T08:26:03;15.28;81.27
68257;DHT22;55069;51.568;4.656;2023-05-10T08:28:28;15.31;81.15
68257;DHT22;55069;51.568;4.656;2023-05-10T08:30:54;15.38;81.10
68257;DHT22;55069;51.568;4.656;2023-05-10T08:33:20;15.69;81.13
68257;DHT22;55069;51.568;4.656;2023-05-10T08:35:46;15.67;80.47
68257;DHT22;55069;51.568;4.656;2023-05-10T08:38:11;15.80;80.90
68257;DHT22;55069;51.568;4.656;2023-05-10T08:40:41;15.59;79.18
68257;DHT22;55069;51.568;4.656;2023-05-10T08:43:12;15.40;78.59
68257;DHT22;55069;51.568;4.656;2023-05-10T08:45:43;15.01;78.02
68257;DHT22;55069;51.568;4.656;2023-05-10T08:48:10;15.09;79.08
68257;DHT22;55069;51.568;4.656;2023-05-10T08:50:38;15.14;78.70
68257;DHT22;55069;51.568;4.656;2023-05-10T08:53:06;15.40;78.00
68257;DHT22;55069;51.568;4.656;2023-05-10T08:55:35;15.80;78.21
68257;DHT22;55069;51.568;4.656;2023-05-10T08:58:03;15.80;77.10
68257;DHT22;55069;51.568;4.656;2023-05-10T09:00:29;15.11;78.82
68257;DHT22;55069;51.568;4.656;2023-05-10T09:02:55;15.14;78.88
68257;DHT22;55069;51.568;4.656;2023-05-10T09:05:22;15.22;79.23
68257;DHT22;55069;51.568;4.656;2023-05-10T09:07:47;15.52;78.84
68257;DHT22;55069;51.568;4.656;2023-05-10T09:10:14;15.39;78.53
68257;DHT22;55069;51.568;4.656;2023-05-10T09:12:40;15.46;78.92
68257;DHT22;55069;51.568;4.656;2023-05-10T09:15:07;15.69;79.68
68257;DHT22;55069;51.568;4.656;2023-05-10T09:17:33;15.25;79.19
68257;DHT22;55069;51.568;4.656;2023-05-10T09:20:00;15.45;79.13
68257;DHT22;55069;51.568;4.656;2023-05-10T09:22:26;15.28;78.99
68257;DHT22;55069;51.568;4.656;2023-05-10T09:25:09;15.66;78.27
68257;DHT22;55069;51.568;4.656;2023-05-10T09:27:37;15.65;77.81
68257;DHT22;55069;51.568;4.656;2023-05-10T09:30:03;16.29;76.66
68257;DHT22;55069;51.568;4.656;2023-05-10T09:32:44;16.58;74.39
68257;DHT22;55069;51.568;4.656;2023-05-10T09:35:11;16.40;73.95
68257;DHT22;55069;51.568;4.656;2023-05-10T09:37:42;16.69;73.94
68257;DHT22;55069;51.568;4.656;2023-05-10T09:40:12;17.21;74.30
68257;DHT22;55069;51.568;4.656;2023-05-10T09:42:38;17.47;71.56
68257;DHT22;55069;51.568;4.656;2023-05-10T09:45:04;17.42;70.95
68257;DHT22;55069;51.568;4.656;2023-05-10T09:47:34;17.44;71.32
68257;DHT22;55069;51.568;4.656;2023-05-10T09:50:00;16.56;73.73
68257;DHT22;55069;51.568;4.656;2023-05-10T09:52:30;16.34;73.97
68257;DHT22;55069;51.568;4.656;2023-05-10T09:54:56;16.38;75.37
68257;DHT22;55069;51.568;4.656;2023-05-10T09:57:23;16.48;74.80
68257;DHT22;55069;51.568;4.656;2023-05-10T09:59:50;16.63;75.34
68257;DHT22;55069;51.568;4.656;2023-05-10T10:02:16;16.62;73.10
68257;DHT22;55069;51.568;4.656;2023-05-10T10:04:42;16.38;73.48
68257;DHT22;55069;51.568;4.656;2023-05-10T10:07:08;16.47;75.36
68257;DHT22;55069;51.568;4.656;2023-05-10T10:09:34;16.82;73.39
68257;DHT22;55069;51.568;4.656;2023-05-10T10:12:03;16.99;72.63
68257;DHT22;55069;51.568;4.656;2023-05-10T10:14:30;17.04;73.79
68257;DHT22;55069;51.568;4.656;2023-05-10T10:16:56;16.61;72.52
68257;DHT22;55069;51.568;4.656;2023-05-10T10:19:22;16.45;72.81
68257;DHT22;55069;51.568;4.656;2023-05-10T10:21:49;16.52;73.38
68257;DHT22;55069;51.568;4.656;2023-05-10T10:24:15;16.66;74.25
68257;DHT22;55069;51.568;4.656;2023-05-10T10:26:42;16.41;73.07
68257;DHT22;55069;51.568;4.656;2023-05-10T10:29:32;16.41;75.92
68257;DHT22;55069;51.568;4.656;2023-05-10T10:32:12;16.29;74.23
68257;DHT22;55069;51.568;4.656;2023-05-10T10:34:44;16.36;75.02
68257;DHT22;55069;51.568;4.656;2023-05-10T10:37:10;16.51;74.21
68257;DHT22;55069;51.568;4.656;2023-05-10T10:39:36;17.04;73.90
68257;DHT22;55069;51.568;4.656;2023-05-10T10:42:02;17.28;72.14
68257;DHT22;55069;51.568;4.656;2023-05-10T10:49:29;16.97;73.63
68257;DHT22;55069;51.568;4.656;2023-05-10T10:55:09;16.73;75.73
68257;DHT22;55069;51.568;4.656;2023-05-10T11:02:53;15.63;77.77
68257;DHT22;55069;51.568;4.656;2023-05-10T11:07:55;15.53;79.44
68257;DHT22;55069;51.568;4.656;2023-05-10T11:10:22;15.62;79.96
68257;DHT22;55069;51.568;4.656;2023-05-10T11:13:02;15.63;79.51
68257;DHT22;55069;51.568;4.656;2023-05-10T11:15:38;15.55;79.04
68257;DHT22;55069;51.568;4.656;2023-05-10T11:18:23;15.62;78.95
68257;DHT22;55069;51.568;4.656;2023-05-10T11:20:57;15.62;79.49
68257;DHT22;55069;51.568;4.656;2023-05-10T11:23:28;15.79;79.28
68257;DHT22;55069;51.568;4.656;2023-05-10T11:25:54;15.63;78.67
68257;DHT22;55069;51.568;4.656;2023-05-10T11:28:20;15.86;78.08
68257;DHT22;55069;51.568;4.656;2023-05-10T11:30:46;15.98;77.70
68257;DHT22;55069;51.568;4.656;2023-05-10T11:33:17;15.80;76.86
68257;DHT22;55069;51.568;4.656;2023-05-10T11:35:43;15.91;76.60
68257;DHT22;55069;51.568;4.656;2023-05-10T11:38:09;16.13;77.69
68257;DHT22;55069;51.568;4.656;2023-05-10T11:40:36;16.08;75.60
68257;DHT22;55069;51.568;4.656;2023-05-10T11:43:02;16.21;75.34
68257;DHT22;55069;51.568;4.656;2023-05-10T11:45:32;15.98;74.67
68257;DHT22;55069;51.568;4.656;2023-05-10T11:47:59;16.20;74.37
68257;DHT22;55069;51.568;4.656;2023-05-10T11:50:25;16.29;75.05
68257;DHT22;55069;51.568;4.656;2023-05-10T11:52:52;16.34;74.48
68257;DHT22;55069;51.568;4.656;2023-05-10T11:55:18;16.41;74.50
68257;DHT22;55069;51.568;4.656;2023-05-10T11:57:44;16.42;74.12
68257;DHT22;55069;51.568;4.656;2023-05-10T12:00:12;16.34;74.27
68257;DHT22;55069;51.568;4.656;2023-05-10T12:02:38;16.10;74.98
68257;DHT22;55069;51.568;4.656;2023-05-10T12:05:05;15.96;75.55
68257;DHT22;55069;51.568;4.656;2023-05-10T12:07:31;15.98;78.96
68257;DHT22;55069;51.568;4.656;2023-05-10T12:10:08;15.98;79.33
68257;DHT22;55069;51.568;4.656;2023-05-10T12:12:45;15.89;79.03
68257;DHT22;55069;51.568;4.656;2023-05-10T12:15:24;15.79;79.63
68257;DHT22;55069;51.568;4.656;2023-05-10T12:17:50;15.66;80.12
68257;DHT22;55069;51.568;4.656;2023-05-10T12:20:18;15.76;81.18
68257;DHT22;55069;51.568;4.656;2023-05-10T12:22:50;15.83;79.88
68257;DHT22;55069;51.568;4.656;2023-05-10T12:25:16;15.84;79.86
68257;DHT22;55069;51.568;4.656;2023-05-10T12:27:56;15.76;79.74
68257;DHT22;55069;51.568;4.656;2023-05-10T12:30:26;15.76;79.06
68257;DHT22;55069;51.568;4.656;2023-05-10T12:32:53;15.73;78.41
68257;DHT22;55069;51.568;4.656;2023-05-10T12:35:20;15.86;79.61
68257;DHT22;55069;51.568;4.656;2023-05-10T12:37:51;15.83;78.94
68257;DHT22;55069;51.568;4.656;2023-05-10T12:40:16;15.87;77.87
68257;DHT22;55069;51.568;4.656;2023-05-10T12:42:42;15.93;77.33
68257;DHT22;55069;51.568;4.656;2023-05-10T12:45:10;15.90;77.62
68257;DHT22;55069;51.568;4.656;2023-05-10T12:47:37;16.18;78.16
68257;DHT22;55069;51.568;4.656;2023-05-10T12:50:03;16.48;77.64
68257;DHT22;55069;51.568;4.656;2023-05-10T12:52:29;16.62;77.75
68257;DHT22;55069;51.568;4.656;2023-05-10T12:54:57;16.73;77.06
68257;DHT22;55069;51.568;4.656;2023-05-10T12:57:22;16.77;76.28
68257;DHT22;55069;51.568;4.656;2023-05-10T12:59:49;16.75;77.36
68257;DHT22;55069;51.568;4.656;2023-05-10T13:02:15;16.91;75.76
68257;DHT22;55069;51.568;4.656;2023-05-10T13:04:44;16.99;75.83
68257;DHT22;55069;51.568;4.656;2023-05-10T13:07:10;17.03;75.18
68257;DHT22;55069;51.568;4.656;2023-05-10T13:09:36;17.10;75.20
68257;DHT22;55069;51.568;4.656;2023-05-10T13:12:01;16.90;75.60
68257;DHT22;55069;51.568;4.656;2023-05-10T13:14:27;17.09;75.32
68257;DHT22;55069;51.568;4.656;2023-05-10T13:16:53;17.09;73.88
68257;DHT22;55069;51.568;4.656;2023-05-10T13:19:19;16.87;75.05
68257;DHT22;55069;51.568;4.656;2023-05-10T13:21:45;16.80;75.26
68257;DHT22;55069;51.568;4.656;2023-05-10T13:24:11;16.73;76.43
68257;DHT22;55069;51.568;4.656;2023-05-10T13:26:41;16.76;75.83
68257;DHT22;55069;51.568;4.656;2023-05-10T13:29:07;16.83;76.93
68257;DHT22;55069;51.568;4.656;2023-05-10T13:31:33;16.82;74.51
68257;DHT22;55069;51.568;4.656;2023-05-10T13:33:59;17.04;75.93
68257;DHT22;55069;51.568;4.656;2023-05-10T13:36:25;16.75;74.65
68257;DHT22;55069;51.568;4.656;2023-05-10T13:38:51;17.03;73.47
68257;DHT22;55069;51.568;4.656;2023-05-10T13:41:17;17.02;73.97
68257;DHT22;55069;51.568;4.656;2023-05-10T13:43:43;17.14;74.84
68257;DHT22;55069;51.568;4.656;2023-05-10T13:46:09;17.10;73.97
68257;DHT22;55069;51.568;4.656;2023-05-10T13:48:34;17.17;72.78
68257;DHT22;55069;51.568;4.656;2023-05-10T13:51:02;17.11;73.65
68257;DHT22;55069;51.568;4.656;2023-05-10T13:53:28;17.03;73.99
68257;DHT22;55069;51.568;4.656;2023-05-10T13:55:53;16.90;75.88
68257;DHT22;55069;51.568;4.656;2023-05-10T13:58:19;16.91;75.03
68257;DHT22;55069;51.568;4.656;2023-05-10T14:00:45;16.91;75.12
68257;DHT22;55069;51.568;4.656;2023-05-10T14:03:10;16.69;75.83
68257;DHT22;55069;51.568;4.656;2023-05-10T14:05:36;16.62;76.40
68257;DHT22;55069;51.568;4.656;2023-05-10T14:08:02;16.36;76.96
68257;DHT22;55069;51.568;4.656;2023-05-10T14:10:28;16.28;77.47
68257;DHT22;55069;51.568;4.656;2023-05-10T14:12:53;16.29;77.08
68257;DHT22;55069;51.568;4.656;2023-05-10T14:15:19;16.21;78.39
68257;DHT22;55069;51.568;4.656;2023-05-10T14:17:44;16.13;78.57
68257;DHT22;55069;51.568;4.656;2023-05-10T14:20:11;16.15;79.61
68257;DHT22;55069;51.568;4.656;2023-05-10T14:22:36;16.20;81.15
68257;DHT22;55069;51.568;4.656;2023-05-10T14:25:02;16.15;79.11
68257;DHT22;55069;51.568;4.656;2023-05-10T14:27:28;16.01;79.74
68257;DHT22;55069;51.568;4.656;2023-05-10T14:29:54;16.00;82.51
68257;DHT22;55069;51.568;4.656;2023-05-10T14:32:19;15.76;83.64
68257;DHT22;55069;51.568;4.656;2023-05-10T14:34:45;15.69;84.44
68257;DHT22;55069;51.568;4.656;2023-05-10T14:37:13;15.65;84.26
68257;DHT22;55069;51.568;4.656;2023-05-10T14:39:39;15.56;84.97
68257;DHT22;55069;51.568;4.656;2023-05-10T14:42:04;15.50;85.13
68257;DHT22;55069;51.568;4.656;2023-05-10T14:44:30;15.31;85.03
68257;DHT22;55069;51.568;4.656;2023-05-10T14:46:56;15.14;85.41
68257;DHT22;55069;51.568;4.656;2023-05-10T14:49:22;15.14;85.79
68257;DHT22;55069;51.568;4.656;2023-05-10T14:51:50;14.98;85.16
68257;DHT22;55069;51.568;4.656;2023-05-10T14:54:16;15.00;85.01
68257;DHT22;55069;51.568;4.656;2023-05-10T14:56:41;15.04;86.08
68257;DHT22;55069;51.568;4.656;2023-05-10T14:59:07;14.97;86.33
68257;DHT22;55069;51.568;4.656;2023-05-10T15:01:33;14.97;86.43
68257;DHT22;55069;51.568;4.656;2023-05-10T15:04:03;14.88;87.17
68257;DHT22;55069;51.568;4.656;2023-05-10T15:06:33;14.87;87.17
68257;DHT22;55069;51.568;4.656;2023-05-10T15:09:01;14.83;87.09
68257;DHT22;55069;51.568;4.656;2023-05-10T15:11:27;14.77;86.76
68257;DHT22;55069;51.568;4.656;2023-05-10T15:13:53;14.81;87.30
68257;DHT22;55069;51.568;4.656;2023-05-10T15:16:18;14.79;87.48
68257;DHT22;55069;51.568;4.656;2023-05-10T15:18:44;14.21;87.22
68257;DHT22;55069;51.568;4.656;2023-05-10T15:21:11;14.08;88.31
68257;DHT22;55069;51.568;4.656;2023-05-10T15:23:36;14.12;88.55
68257;DHT22;55069;51.568;4.656;2023-05-10T15:26:02;14.01;89.39
68257;DHT22;55069;51.568;4.656;2023-05-10T15:28:28;13.84;89.46
68257;DHT22;55069;51.568;4.656;2023-05-10T15:30:54;13.91;89.68
68257;DHT22;55069;51.568;4.656;2023-05-10T15:33:19;13.88;89.13
68257;DHT22;55069;51.568;4.656;2023-05-10T15:35:45;13.84;89.50
68257;DHT22;55069;51.568;4.656;2023-05-10T15:38:11;13.84;89.46
68257;DHT22;55069;51.568;4.656;2023-05-10T15:40:36;13.74;89.93
68257;DHT22;55069;51.568;4.656;2023-05-10T15:43:02;13.77;90.33
68257;DHT22;55069;51.568;4.656;2023-05-10T15:45:28;13.73;90.29
68257;DHT22;55069;51.568;4.656;2023-05-10T15:47:53;13.74;90.94
68257;DHT22;55069;51.568;4.656;2023-05-10T15:50:19;13.82;91.30
68257;DHT22;55069;51.568;4.656;2023-05-10T15:52:44;13.91;90.96
68257;DHT22;55069;51.568;4.656;2023-05-10T15:55:10;13.84;90.21
68257;DHT22;55069;51.568;4.656;2023-05-10T15:57:39;13.89;90.10